Time;durP1;ratioP1;P1;durP2;ratioP2;P2;SDS_P1;SDS_P2;PMS_P1;PMS_P2;Temp;Humidity;BMP_temperature;BMP_pressure;BME280_temperature;BME280_humidity;BME280_pressure;Samples;Min_cycle;Max_cycle;Signal;HPM_P1;HPM_P2
2022/07/23 00:00:29;;;;;;;2.13;1.93;;;15.70;99.90;;;;;;6124889;23;20191;-86
2022/07/23 00:02:55;;;;;;;2.40;1.77;;;15.70;99.90;;;;;;6124325;23;20199;-86
2022/07/23 00:05:21;;;;;;;3.20;1.67;;;15.60;99.90;;;;;;6100274;23;20196;-86
2022/07/23 00:07:47;;;;;;;2.47;1.97;;;15.60;99.90;;;;;;6075951;23;20210;-86
2022/07/23 00:10:13;;;;;;;2.97;1.50;;;15.50;99.90;;;;;;6124126;23;20277;-86
2022/07/23 00:12:39;;;;;;;1.53;1.30;;;15.40;99.90;;;;;;6126257;23;20236;-86
2022/07/23 00:15:08;;;;;;;2.93;1.27;;;15.30;99.90;;;;;;6100173;23;20188;-86
2022/07/23 00:17:34;;;;;;;2.57;1.10;;;15.20;99.90;;;;;;6100680;23;20692;-86
2022/07/23 00:19:59;;;;;;;2.50;1.10;;;15.20;99.90;;;;;;6124230;23;20279;-86
2022/07/23 00:22:25;;;;;;;1.23;0.97;;;15.10;99.90;;;;;;6100180;23;20188;-85
2022/07/23 00:24:51;;;;;;;1.10;1.00;;;15.10;99.90;;;;;;6076636;23;20160;-86
2022/07/23 00:27:17;;;;;;;4.27;1.10;;;15.10;99.90;;;;;;6076092;23;20192;-85
2022/07/23 00:29:43;;;;;;;1.50;1.40;;;15.10;99.90;;;;;;6099706;23;20589;-86
2022/07/23 00:32:08;;;;;;;1.23;1.13;;;15.10;99.90;;;;;;6099933;23;20239;-85
2022/07/23 00:34:34;;;;;;;2.50;0.90;;;15.20;99.90;;;;;;6100069;23;20230;-85
2022/07/23 00:37:00;;;;;;;1.90;0.83;;;15.30;99.90;;;;;;6100642;23;20171;-86
2022/07/23 00:39:26;;;;;;;1.40;0.90;;;15.30;99.90;;;;;;6075667;23;20298;-85
2022/07/23 00:41:52;;;;;;;6.43;1.30;;;15.30;99.90;;;;;;6100033;23;20203;-85
2022/07/23 00:44:24;;;;;;;2.43;1.50;;;15.30;99.90;;;;;;6075723;23;20652;-86
2022/07/23 00:46:53;;;;;;;2.60;1.43;;;15.30;99.90;;;;;;6124121;23;20275;-85
2022/07/23 00:49:23;;;;;;;4.63;1.33;;;15.30;99.90;;;;;;6125350;23;20160;-85
2022/07/23 00:51:50;;;;;;;1.77;1.63;;;15.20;99.90;;;;;;6100186;23;20191;-85
2022/07/23 00:54:17;;;;;;;1.80;1.40;;;15.20;99.90;;;;;;6099735;23;20196;-86
2022/07/23 00:56:45;;;;;;;1.90;1.30;;;15.10;99.90;;;;;;6125178;23;20540;-86
2022/07/23 00:59:11;;;;;;;2.33;1.50;;;15.10;99.90;;;;;;6124259;23;20199;-86
2022/07/23 01:01:37;;;;;;;2.37;1.50;;;15.00;99.90;;;;;;6075381;23;20626;-86
2022/07/23 01:04:03;;;;;;;2.33;1.47;;;15.00;99.90;;;;;;6100702;23;20605;-86
2022/07/23 01:06:30;;;;;;;2.07;1.30;;;15.00;99.90;;;;;;6100137;23;20184;-86
2022/07/23 01:08:56;;;;;;;1.27;1.13;;;15.00;99.90;;;;;;6075712;23;20641;-86
2022/07/23 01:11:23;;;;;;;1.37;1.27;;;15.10;99.90;;;;;;6099622;23;20219;-86
2022/07/23 01:13:49;;;;;;;2.60;1.27;;;15.00;99.90;;;;;;6099355;23;20204;-86
2022/07/23 01:16:15;;;;;;;1.90;1.70;;;15.00;99.90;;;;;;6100059;23;20247;-86
2022/07/23 01:18:41;;;;;;;2.93;2.10;;;14.90;99.90;;;;;;6125030;23;20158;-86
2022/07/23 01:21:08;;;;;;;4.83;1.37;;;15.00;99.90;;;;;;6077343;23;20219;-86
2022/07/23 01:23:34;;;;;;;1.30;1.20;;;15.00;99.90;;;;;;6127129;23;20616;-85
2022/07/23 01:26:00;;;;;;;2.17;1.50;;;15.00;99.90;;;;;;6101280;23;20200;-85
2022/07/23 01:28:26;;;;;;;2.73;1.63;;;14.90;99.90;;;;;;6101000;23;20196;-85
2022/07/23 01:30:52;;;;;;;5.00;1.63;;;15.00;99.90;;;;;;6127341;23;20231;-86
2022/07/23 01:33:17;;;;;;;1.90;1.77;;;15.00;99.90;;;;;;6077344;23;20192;-87
2022/07/23 01:35:43;;;;;;;2.33;1.27;;;15.00;99.90;;;;;;6077592;23;20206;-86
2022/07/23 01:38:09;;;;;;;2.60;1.63;;;14.90;99.90;;;;;;6099023;23;20198;-86
2022/07/23 01:40:34;;;;;;;1.47;1.37;;;14.80;99.90;;;;;;6048762;23;20283;-86
2022/07/23 01:43:00;;;;;;;2.00;1.70;;;14.80;99.90;;;;;;6025884;23;20760;-86
2022/07/23 01:45:26;;;;;;;2.70;2.00;;;14.70;99.90;;;;;;6024744;23;20272;-86
2022/07/23 01:47:52;;;;;;;3.63;1.87;;;14.70;99.90;;;;;;6024683;23;20200;-87
2022/07/23 01:50:17;;;;;;;2.20;1.43;;;14.70;99.90;;;;;;6072246;23;20576;-86
2022/07/23 01:52:43;;;;;;;4.47;1.73;;;14.60;99.90;;;;;;6024567;23;20201;-86
2022/07/23 01:55:09;;;;;;;2.30;1.80;;;14.50;99.90;;;;;;6048789;23;20236;-86
2022/07/23 01:57:35;;;;;;;2.30;1.60;;;14.50;99.90;;;;;;6073286;23;20590;-87
2022/07/23 02:00:01;;;;;;;2.73;1.57;;;14.50;99.90;;;;;;6024685;23;20235;-86
2022/07/23 02:02:26;;;;;;;2.87;1.90;;;14.40;99.90;;;;;;6048467;23;20197;-86
2022/07/23 02:04:52;;;;;;;4.93;1.80;;;14.40;99.90;;;;;;6048126;23;20204;-86
2022/07/23 02:07:18;;;;;;;2.00;1.50;;;14.40;99.90;;;;;;6048739;23;20244;-86
2022/07/23 02:09:43;;;;;;;4.93;2.20;;;14.40;99.90;;;;;;6025522;23;20247;-86
2022/07/23 02:12:09;;;;;;;3.30;1.60;;;14.30;99.90;;;;;;6024498;23;20209;-87
2022/07/23 02:14:35;;;;;;;6.70;2.17;;;14.30;99.90;;;;;;6072396;23;20656;-86
2022/07/23 02:17:01;;;;;;;2.80;1.53;;;14.20;99.90;;;;;;6048090;23;20192;-86
2022/07/23 02:19:26;;;;;;;6.57;2.00;;;14.10;99.90;;;;;;6048754;23;20192;-87
2022/07/23 02:21:54;;;;;;;3.37;2.17;;;14.10;99.90;;;;;;6048875;23;20575;-87
2022/07/23 02:24:20;;;;;;;4.97;2.07;;;14.10;99.90;;;;;;6048848;23;20219;-87
2022/07/23 02:26:46;;;;;;;2.80;1.47;;;14.10;99.90;;;;;;6048453;23;20665;-87
2022/07/23 02:29:12;;;;;;;2.30;2.10;;;14.00;99.90;;;;;;6072601;23;20197;-86
2022/07/23 02:31:38;;;;;;;3.50;2.07;;;14.00;99.90;;;;;;6071737;23;20205;-87
2022/07/23 02:34:04;;;;;;;3.00;2.07;;;14.00;99.90;;;;;;6048073;23;20256;-86
2022/07/23 02:36:30;;;;;;;2.93;1.50;;;13.90;99.90;;;;;;6049190;23;20161;-87
2022/07/23 02:38:55;;;;;;;2.70;1.77;;;13.90;99.90;;;;;;6066563;23;20215;-87
2022/07/23 02:41:21;;;;;;;1.97;1.80;;;13.90;99.90;;;;;;6100945;23;20207;-86
2022/07/23 02:43:47;;;;;;;2.17;1.80;;;13.90;99.90;;;;;;6100480;23;20274;-86
2022/07/23 02:46:13;;;;;;;6.20;2.43;;;13.90;99.90;;;;;;6077062;23;20171;-86
2022/07/23 02:48:38;;;;;;;5.47;2.07;;;13.90;99.90;;;;;;6077310;23;20307;-86
2022/07/23 02:51:04;;;;;;;5.07;1.70;;;13.80;99.90;;;;;;6076675;23;20207;-86
2022/07/23 02:53:30;;;;;;;2.60;1.70;;;13.80;99.90;;;;;;6076726;23;20196;-86
2022/07/23 02:55:55;;;;;;;3.50;2.23;;;13.80;99.90;;;;;;6100280;23;20932;-86
2022/07/23 02:58:21;;;;;;;3.60;1.77;;;13.80;99.90;;;;;;6077128;23;20243;-86
2022/07/23 03:00:47;;;;;;;2.50;1.30;;;13.80;99.90;;;;;;6125333;23;20156;-86
2022/07/23 03:03:13;;;;;;;4.70;1.80;;;13.80;99.90;;;;;;6124762;23;20207;-86
2022/07/23 03:05:39;;;;;;;4.07;1.80;;;13.80;99.90;;;;;;6100508;23;20211;-86
2022/07/23 03:08:04;;;;;;;2.30;1.90;;;13.80;99.90;;;;;;6076364;23;20200;-86
2022/07/23 03:10:30;;;;;;;2.43;1.80;;;13.80;99.90;;;;;;6125112;23;20206;-86
2022/07/23 03:12:56;;;;;;;1.80;1.47;;;13.80;99.90;;;;;;6077389;23;20164;-87
2022/07/23 03:15:22;;;;;;;6.47;2.47;;;13.80;99.90;;;;;;6076931;23;20716;-86
2022/07/23 03:17:47;;;;;;;2.17;1.47;;;13.90;99.90;;;;;;6100230;23;20200;-86
2022/07/23 03:20:13;;;;;;;7.20;2.23;;;13.90;99.90;;;;;;6076383;23;20204;-86
2022/07/23 03:22:39;;;;;;;2.10;1.67;;;13.90;99.90;;;;;;6076631;23;20203;-86
2022/07/23 03:25:05;;;;;;;4.70;1.50;;;13.90;99.90;;;;;;6100262;23;20882;-86
2022/07/23 03:27:31;;;;;;;16.43;1.73;;;13.90;99.90;;;;;;6100797;23;20156;-86
2022/07/23 03:29:59;;;;;;;2.23;1.57;;;13.90;99.90;;;;;;6076192;23;20203;-86
2022/07/23 03:32:25;;;;;;;7.57;1.83;;;13.90;99.90;;;;;;6124261;23;20212;-86
2022/07/23 03:34:51;;;;;;;1.33;1.07;;;13.90;99.90;;;;;;6124748;23;20200;-87
2022/07/23 03:37:19;;;;;;;3.40;1.50;;;13.90;99.90;;;;;;6124986;23;20169;-87
2022/07/23 03:39:45;;;;;;;3.27;1.63;;;13.90;99.90;;;;;;6101091;23;20715;-88
2022/07/23 03:42:11;;;;;;;3.23;1.30;;;13.90;99.90;;;;;;6100104;23;20518;-88
2022/07/23 03:44:37;;;;;;;3.60;1.87;;;13.90;99.90;;;;;;6100728;23;20211;-88
2022/07/23 03:47:04;;;;;;;3.67;1.40;;;13.90;99.90;;;;;;6125033;23;20267;-87
2022/07/23 03:49:30;;;;;;;3.03;1.87;;;13.90;99.90;;;;;;6076637;23;20200;-87
2022/07/23 03:51:55;;;;;;;1.70;1.13;;;13.90;99.90;;;;;;6076921;23;20231;-87
2022/07/23 03:54:21;;;;;;;1.93;1.70;;;13.90;99.90;;;;;;6100342;23;20198;-87
2022/07/23 03:56:47;;;;;;;4.97;1.93;;;13.90;99.90;;;;;;6100560;23;20200;-87
2022/07/23 03:59:13;;;;;;;1.93;1.57;;;14.00;99.90;;;;;;6076580;23;20196;-87
2022/07/23 04:01:38;;;;;;;3.20;1.67;;;14.00;99.90;;;;;;6100632;23;20282;-87
2022/07/23 04:04:04;;;;;;;1.30;1.20;;;14.00;99.90;;;;;;6100627;23;20236;-87
2022/07/23 04:06:30;;;;;;;3.90;1.60;;;14.00;99.90;;;;;;6100889;23;20171;-86
2022/07/23 04:08:56;;;;;;;1.70;1.07;;;14.00;99.90;;;;;;6100222;23;20198;-87
2022/07/23 04:11:22;;;;;;;1.97;1.27;;;14.00;99.90;;;;;;6076873;23;20651;-88
2022/07/23 04:13:47;;;;;;;1.63;1.10;;;14.00;99.90;;;;;;6076650;23;20276;-87
2022/07/23 04:16:13;;;;;;;1.53;1.23;;;14.10;99.90;;;;;;6124734;23;20156;-88
2022/07/23 04:18:39;;;;;;;2.43;1.67;;;14.10;99.90;;;;;;6101221;23;20156;-86
2022/07/23 04:21:05;;;;;;;4.07;1.63;;;14.10;99.90;;;;;;6075872;23;20629;-86
2022/07/23 04:23:31;;;;;;;1.37;1.00;;;14.10;99.90;;;;;;6124356;23;20200;-86
2022/07/23 04:25:56;;;;;;;1.57;1.20;;;14.10;99.90;;;;;;6124054;23;20199;-86
2022/07/23 04:28:22;;;;;;;2.20;1.33;;;14.20;99.90;;;;;;6076313;23;20164;-86
2022/07/23 04:30:48;;;;;;;2.90;0.93;;;14.20;99.90;;;;;;6100270;23;20511;-86
2022/07/23 04:33:13;;;;;;;1.77;0.80;;;14.20;99.90;;;;;;6099801;23;20196;-86
2022/07/23 04:35:39;;;;;;;5.60;0.90;;;14.20;99.90;;;;;;6075856;23;20656;-86
2022/07/23 04:38:05;;;;;;;1.83;0.97;;;14.30;99.90;;;;;;6122674;23;20207;-86
2022/07/23 04:40:31;;;;;;;1.30;0.77;;;14.40;99.90;;;;;;6071414;23;20351;-86
2022/07/23 04:42:57;;;;;;;1.50;1.03;;;14.40;99.90;;;;;;6047401;23;20169;-86
2022/07/23 04:45:24;;;;;;;1.00;0.80;;;14.40;99.90;;;;;;6071088;23;20208;-86
2022/07/23 04:47:50;;;;;;;0.57;0.57;;;14.40;99.90;;;;;;6071500;23;20220;-86
2022/07/23 04:50:21;;;;;;;9.47;1.00;;;14.40;99.90;;;;;;6046877;23;20219;-85
2022/07/23 04:52:50;;;;;;;5.17;1.47;;;14.40;99.90;;;;;;6048156;23;20199;-86
2022/07/23 04:55:16;;;;;;;1.17;0.63;;;14.40;99.90;;;;;;6025805;23;20587;-86
2022/07/23 04:57:42;;;;;;;0.90;0.70;;;14.50;99.90;;;;;;6049499;23;20168;-85
2022/07/23 05:00:09;;;;;;;4.03;0.93;;;14.50;99.90;;;;;;6072532;23;20251;-85
2022/07/23 05:02:34;;;;;;;0.80;0.70;;;14.60;99.90;;;;;;6049233;23;20200;-86
2022/07/23 05:05:00;;;;;;;0.47;0.47;;;14.80;99.90;;;;;;6025389;23;20199;-87
2022/07/23 05:07:26;;;;;;;0.50;0.50;;;15.00;99.90;;;;;;6025245;23;20670;-86
2022/07/23 05:09:52;;;;;;;0.70;0.53;;;15.10;99.90;;;;;;6026254;23;20799;-86
2022/07/23 05:12:17;;;;;;;0.60;0.60;;;15.20;99.90;;;;;;6048520;23;20204;-85
2022/07/23 05:14:43;;;;;;;0.27;0.27;;;15.30;99.90;;;;;;6048473;23;20211;-86
2022/07/23 05:17:09;;;;;;;3.70;0.60;;;15.50;99.90;;;;;;6048771;23;20275;-86
2022/07/23 05:19:35;;;;;;;0.87;0.40;;;15.60;99.90;;;;;;6072707;23;20219;-86
2022/07/23 05:22:01;;;;;;;0.87;0.67;;;15.70;99.90;;;;;;6025664;23;20494;-85
2022/07/23 05:24:27;;;;;;;0.50;0.30;;;15.80;99.90;;;;;;6072330;23;20200;-86
2022/07/23 05:26:53;;;;;;;0.33;0.33;;;15.90;99.90;;;;;;6048430;23;20200;-86
2022/07/23 05:29:18;;;;;;;0.90;0.60;;;16.00;99.90;;;;;;6047711;23;20258;-86
2022/07/23 05:31:44;;;;;;;0.60;0.60;;;16.00;99.90;;;;;;6048775;23;20240;-86
2022/07/23 05:34:10;;;;;;;1.13;0.63;;;16.00;99.90;;;;;;6047835;23;20193;-86
2022/07/23 05:36:36;;;;;;;0.40;0.40;;;16.20;99.90;;;;;;6048949;23;20168;-86
2022/07/23 05:39:03;;;;;;;0.40;0.40;;;16.50;99.90;;;;;;6068756;23;20223;-86
2022/07/23 05:41:28;;;;;;;0.53;0.53;;;16.80;99.90;;;;;;6125572;23;20573;-85
2022/07/23 05:43:54;;;;;;;0.83;0.40;;;16.90;99.90;;;;;;6100669;23;20263;-85
2022/07/23 05:46:20;;;;;;;0.67;0.67;;;17.60;99.90;;;;;;6077261;23;20167;-86
2022/07/23 05:48:49;;;;;;;1.17;0.83;;;17.60;99.90;;;;;;6101961;23;20239;-85
2022/07/23 05:51:20;;;;;;;0.57;0.50;;;17.20;99.90;;;;;;6124903;23;20208;-86
2022/07/23 05:53:46;;;;;;;0.53;0.53;;;17.80;99.90;;;;;;6100851;23;20188;-85
2022/07/23 05:56:12;;;;;;;0.50;0.50;;;18.50;99.90;;;;;;6100880;23;20196;-85
2022/07/23 05:58:37;;;;;;;0.70;0.60;;;20.60;99.90;;;;;;6076489;23;20195;-85
2022/07/23 06:01:03;;;;;;;1.03;0.50;;;21.20;99.90;;;;;;6076492;23;20224;-85
2022/07/23 06:03:29;;;;;;;0.53;0.50;;;20.00;99.90;;;;;;6101822;23;20258;-84
2022/07/23 06:05:55;;;;;;;0.83;0.60;;;19.20;99.90;;;;;;6076927;23;20195;-84
2022/07/23 06:08:20;;;;;;;0.60;0.60;;;19.10;99.90;;;;;;6076527;23;20259;-86
2022/07/23 06:10:46;;;;;;;0.60;0.60;;;22.40;99.90;;;;;;6124880;23;20208;-86
2022/07/23 06:13:12;;;;;;;0.50;0.50;;;25.70;99.90;;;;;;6100398;23;20156;-87
2022/07/23 06:15:38;;;;;;;4.00;0.90;;;28.40;99.90;;;;;;6101845;23;20156;-90
2022/07/23 06:18:03;;;;;;;0.60;0.60;;;29.40;99.90;;;;;;6076890;23;20211;-86
2022/07/23 06:20:29;;;;;;;1.87;0.80;;;31.20;99.90;;;;;;6077594;23;20202;-91
2022/07/23 06:22:55;;;;;;;0.50;0.50;;;32.30;97.60;;;;;;6101881;23;20196;-90
2022/07/23 06:25:20;;;;;;;0.95;0.57;;;30.30;95.00;;;;;;6079005;23;20267;-93
2022/07/23 06:27:47;;;;;;;0.40;0.40;;;26.90;99.90;;;;;;6078894;23;20192;-92
2022/07/23 06:30:15;;;;;;;1.30;1.20;;;25.00;99.90;;;;;;6127352;23;20361;-92
2022/07/23 06:32:41;;;;;;;0.82;0.70;;;22.70;99.90;;;;;;6102994;23;20196;-92
2022/07/23 06:35:07;;;;;;;0.50;0.50;;;21.80;99.90;;;;;;6102607;23;20196;-91
2022/07/23 06:37:33;;;;;;;0.55;0.50;;;21.30;99.90;;;;;;6103375;23;20271;-91
2022/07/23 06:39:59;;;;;;;0.57;0.57;;;20.70;99.90;;;;;;6078875;23;20708;-93
2022/07/23 06:42:25;;;;;;;0.70;0.50;;;20.50;99.90;;;;;;6077978;23;20200;-92
2022/07/23 06:44:50;;;;;;;1.00;0.60;;;20.10;99.90;;;;;;6078235;23;20203;-91
2022/07/23 06:47:16;;;;;;;0.77;0.77;;;20.10;99.90;;;;;;6077620;23;20196;-90
2022/07/23 06:49:42;;;;;;;0.80;0.70;;;20.70;99.90;;;;;;6101282;23;20200;-89
2022/07/23 06:52:08;;;;;;;1.80;0.50;;;22.20;99.90;;;;;;6077320;23;20180;-89
2022/07/23 06:54:35;;;;;;;0.40;0.40;;;21.70;99.90;;;;;;6126190;23;20596;-89
2022/07/23 06:57:01;;;;;;;2.42;0.50;;;21.80;99.90;;;;;;6100908;23;20195;-86
2022/07/23 06:59:27;;;;;;;3.15;0.50;;;20.70;99.90;;;;;;6100777;23;20224;-87
2022/07/23 07:01:53;;;;;;;1.47;0.60;;;20.10;99.90;;;;;;6100619;23;20196;-90
2022/07/23 07:04:18;;;;;;;0.67;0.60;;;19.80;99.90;;;;;;6076725;23;20156;-87
2022/07/23 07:06:44;;;;;;;0.57;0.57;;;19.40;99.90;;;;;;6077594;23;20219;-87
2022/07/23 07:09:10;;;;;;;0.50;0.50;;;19.10;99.90;;;;;;6100306;23;20196;-87
2022/07/23 07:11:35;;;;;;;0.60;0.60;;;19.10;99.90;;;;;;6125137;23;20283;-87
2022/07/23 07:14:01;;;;;;;0.50;0.50;;;19.30;99.90;;;;;;6076524;23;20522;-87
2022/07/23 07:16:27;;;;;;;0.67;0.63;;;19.00;99.90;;;;;;6100078;23;20262;-88
2022/07/23 07:18:53;;;;;;;0.77;0.77;;;18.80;99.90;;;;;;6101692;23;20160;-88
2022/07/23 07:21:18;;;;;;;0.50;0.50;;;18.60;99.90;;;;;;6076725;23;20701;-89
2022/07/23 07:23:44;;;;;;;0.60;0.50;;;18.40;99.90;;;;;;6077193;23;20647;-89
2022/07/23 07:26:10;;;;;;;0.40;0.40;;;18.50;99.90;;;;;;6100452;23;20246;-88
2022/07/23 07:28:35;;;;;;;0.60;0.50;;;18.70;99.90;;;;;;6101215;23;20630;-89
2022/07/23 07:31:01;;;;;;;0.80;0.80;;;18.60;99.90;;;;;;6077787;23;20183;-90
2022/07/23 07:33:27;;;;;;;0.60;0.60;;;18.80;99.90;;;;;;6076439;23;20191;-87
2022/07/23 07:35:53;;;;;;;2.03;0.83;;;18.90;99.90;;;;;;6125323;23;20227;-89
2022/07/23 07:38:19;;;;;;;0.70;0.70;;;19.00;99.90;;;;;;6123644;23;20251;-89
2022/07/23 07:40:44;;;;;;;0.70;0.50;;;18.90;99.90;;;;;;6071724;23;20700;-86
2022/07/23 07:43:10;;;;;;;0.60;0.60;;;18.80;99.90;;;;;;6024070;23;20161;-86
2022/07/23 07:45:36;;;;;;;0.60;0.60;;;18.60;99.90;;;;;;6071701;23;20169;-86
2022/07/23 07:48:02;;;;;;;0.90;0.90;;;18.40;99.90;;;;;;6047636;23;20196;-87
2022/07/23 07:50:28;;;;;;;2.07;0.80;;;18.40;99.90;;;;;;6048027;23;20313;-89
2022/07/23 07:52:53;;;;;;;0.60;0.60;;;18.30;99.90;;;;;;6048307;23;20201;-91
2022/07/23 07:55:19;;;;;;;0.70;0.70;;;18.30;99.90;;;;;;6047672;23;20189;-90
2022/07/23 07:57:45;;;;;;;0.80;0.70;;;18.40;99.90;;;;;;6048479;23;20160;-89
2022/07/23 08:00:11;;;;;;;2.97;0.80;;;18.40;99.90;;;;;;6024119;23;20192;-88
2022/07/23 08:02:41;;;;;;;1.70;0.60;;;18.60;99.90;;;;;;6047686;23;20268;-89
2022/07/23 08:05:07;;;;;;;1.03;0.50;;;18.60;99.90;;;;;;6048076;23;20237;-89
2022/07/23 08:07:33;;;;;;;2.00;0.63;;;18.80;99.90;;;;;;6024155;23;20192;-89
2022/07/23 08:09:58;;;;;;;5.10;0.70;;;18.90;99.90;;;;;;6025393;23;20161;-89
2022/07/23 08:12:24;;;;;;;0.97;0.50;;;19.20;99.90;;;;;;6023995;23;20214;-90
2022/07/23 08:14:50;;;;;;;0.40;0.40;;;19.50;99.90;;;;;;6023676;23;20215;-87
2022/07/23 08:17:15;;;;;;;0.60;0.60;;;19.60;99.90;;;;;;6047537;23;20196;-89
2022/07/23 08:19:41;;;;;;;1.80;0.50;;;19.40;99.90;;;;;;6047823;23;20204;-89
2022/07/23 08:22:07;;;;;;;0.50;0.50;;;19.20;99.90;;;;;;6024525;23;20161;-89
2022/07/23 08:24:33;;;;;;;1.33;0.67;;;19.20;99.90;;;;;;6047249;23;20169;-89
2022/07/23 08:26:58;;;;;;;0.60;0.60;;;19.60;99.90;;;;;;6022141;23;20197;-91
2022/07/23 08:29:24;;;;;;;0.90;0.70;;;19.30;99.90;;;;;;6047977;23;20211;-90
2022/07/23 08:31:50;;;;;;;0.50;0.50;;;19.40;99.90;;;;;;6025519;23;20208;-90
2022/07/23 08:34:15;;;;;;;0.70;0.70;;;19.70;99.90;;;;;;6049284;23;20882;-89
2022/07/23 08:36:41;;;;;;;1.70;1.03;;;20.40;99.90;;;;;;6025989;23;20164;-89
2022/07/23 08:39:07;;;;;;;0.60;0.60;;;21.10;99.90;;;;;;6041638;23;20237;-89
2022/07/23 08:41:34;;;;;;;2.00;1.03;;;21.00;99.90;;;;;;6077732;23;20641;-90
2022/07/23 08:44:00;;;;;;;2.10;0.60;;;20.40;99.90;;;;;;6078063;23;20203;-89
2022/07/23 08:46:27;;;;;;;0.70;0.70;;;21.20;99.90;;;;;;6102358;23;20191;-89
2022/07/23 08:48:54;;;;;;;1.50;0.73;;;22.10;99.90;;;;;;6103687;23;20176;-89
2022/07/23 08:51:21;;;;;;;0.60;0.60;;;22.60;99.90;;;;;;6126122;23;20285;-89
2022/07/23 08:53:47;;;;;;;1.63;0.73;;;21.60;99.90;;;;;;6078408;23;20196;-88
2022/07/23 08:56:13;;;;;;;0.70;0.70;;;21.10;99.90;;;;;;6101894;23;20196;-87
2022/07/23 08:58:39;;;;;;;0.60;0.60;;;21.00;99.90;;;;;;6078535;23;20203;-88
2022/07/23 09:01:05;;;;;;;2.47;1.30;;;21.00;99.90;;;;;;6102459;23;20494;-87
2022/07/23 09:03:33;;;;;;;2.03;0.70;;;21.60;99.90;;;;;;6102130;23;20164;-86
2022/07/23 09:06:00;;;;;;;0.98;0.70;;;22.80;99.90;;;;;;6125757;23;20200;-88
2022/07/23 09:08:44;;;;;;;1.67;0.90;;;25.20;99.90;;;;;;6102257;23;20207;-88
2022/07/23 09:11:12;;;;;;;0.88;0.70;;;26.60;99.90;;;;;;6101782;23;20204;-89
2022/07/23 09:13:45;;;;;;;1.05;0.95;;;25.70;99.90;;;;;;6126402;23;20196;-88
2022/07/23 09:16:17;;;;;;;1.58;0.70;;;24.50;99.90;;;;;;6126546;23;20216;-89
2022/07/23 09:18:51;;;;;;;2.15;1.00;;;23.40;99.90;;;;;;6127100;23;20152;-89
2022/07/23 09:21:28;;;;;;;1.33;0.60;;;22.50;99.90;;;;;;6126238;23;20199;-88
2022/07/23 09:24:01;;;;;;;1.30;0.95;;;22.40;99.90;;;;;;6126219;23;20535;-89
2022/07/23 09:26:44;;;;;;;0.60;0.60;;;21.80;99.90;;;;;;6126317;23;20200;-90
2022/07/23 09:29:16;;;;;;;2.45;1.02;;;22.30;99.90;;;;;;6102215;23;20200;-88
2022/07/23 09:31:53;;;;;;;1.05;0.82;;;24.60;99.90;;;;;;6127560;23;20237;-88
2022/07/23 09:34:20;;;;;;;2.05;0.70;;;25.10;99.90;;;;;;6127293;23;20148;-88
2022/07/23 09:36:47;;;;;;;1.52;0.70;;;24.20;99.90;;;;;;6126714;23;20152;-88
2022/07/23 09:39:15;;;;;;;0.52;0.50;;;23.60;99.90;;;;;;6125391;23;20212;-87
2022/07/23 09:41:46;;;;;;;1.95;0.80;;;23.20;99.90;;;;;;6077816;23;20200;-88
2022/07/23 09:44:18;;;;;;;0.80;0.65;;;22.20;99.90;;;;;;6126050;23;20188;-88
2022/07/23 09:46:46;;;;;;;0.57;0.57;;;22.90;99.90;;;;;;6125922;23;20195;-88
2022/07/23 09:49:22;;;;;;;0.98;0.77;;;23.80;99.90;;;;;;6127154;23;20234;-89
2022/07/23 09:51:53;;;;;;;0.80;0.80;;;23.90;99.90;;;;;;6102132;23;20176;-89
2022/07/23 09:54:28;;;;;;;0.60;0.60;;;24.10;99.90;;;;;;6127110;23;20264;-90
2022/07/23 09:56:54;;;;;;;0.63;0.60;;;23.00;99.90;;;;;;6126036;23;20528;-89
2022/07/23 09:59:27;;;;;;;0.70;0.70;;;22.60;99.90;;;;;;6101908;23;20199;-89
2022/07/23 10:01:56;;;;;;;0.77;0.77;;;23.00;99.90;;;;;;6126366;23;20719;-88
2022/07/23 10:04:24;;;;;;;1.48;0.80;;;24.80;99.90;;;;;;6125805;23;20231;-88
2022/07/23 10:06:55;;;;;;;0.70;0.70;;;23.80;99.90;;;;;;6102143;23;20179;-87
2022/07/23 10:09:25;;;;;;;1.27;0.60;;;24.30;99.90;;;;;;6127037;23;20271;-87
2022/07/23 10:11:54;;;;;;;1.20;0.70;;;24.10;99.90;;;;;;6125363;23;20203;-88
2022/07/23 10:14:20;;;;;;;1.35;0.80;;;23.30;99.90;;;;;;6127147;23;20192;-87
2022/07/23 10:16:47;;;;;;;0.73;0.70;;;22.80;99.90;;;;;;6077638;23;20643;-87
2022/07/23 10:19:13;;;;;;;0.70;0.70;;;22.30;99.90;;;;;;6101838;23;20541;-89
2022/07/23 10:22:02;;;;;;;2.05;0.73;;;21.80;99.90;;;;;;6126485;23;20161;-88
2022/07/23 10:24:46;;;;;;;2.28;0.85;;;22.00;99.90;;;;;;6124277;23;20200;-86
2022/07/23 10:27:37;;;;;;;3.10;0.70;;;22.50;99.90;;;;;;6125776;23;20537;-87
2022/07/23 10:30:34;;;;;;;0.85;0.70;;;22.10;99.90;;;;;;6125100;23;20203;-88
2022/07/23 10:33:11;;;;;;;1.08;0.73;;;20.90;99.90;;;;;;6120064;23;20208;-89
2022/07/23 10:36:00;;;;;;;1.17;0.70;;;20.60;99.90;;;;;;6125558;23;20250;-87
2022/07/23 10:39:01;;;;;;;0.60;0.60;;;21.50;99.90;;;;;;6125351;23;20676;-88
2022/07/23 10:41:36;;;;;;;1.83;1.48;;;23.10;99.90;;;;;;6071574;23;20664;-86
2022/07/23 10:44:13;;;;;;;0.70;0.70;;;24.30;99.90;;;;;;6125432;23;20928;-87
2022/07/23 10:49:33;;;;;;;0.73;0.73;;;23.80;99.90;;;;;;6126544;23;20187;-86
2022/07/23 10:52:14;;;;;;;1.00;0.70;;;23.50;99.90;;;;;;6077097;23;20180;-87
2022/07/23 10:54:44;;;;;;;2.95;0.73;;;24.90;99.90;;;;;;6124991;23;20188;-87
2022/07/23 10:57:11;;;;;;;0.73;0.60;;;25.30;99.90;;;;;;6101692;23;20271;-88
2022/07/23 11:00:09;;;;;;;0.80;0.70;;;25.70;99.90;;;;;;6125059;23;20192;-88
2022/07/23 11:02:36;;;;;;;1.45;0.65;;;26.40;99.90;;;;;;6124741;23;20664;-88
2022/07/23 11:05:10;;;;;;;0.93;0.70;;;26.50;99.90;;;;;;6125180;23;20235;-89
2022/07/23 11:07:57;;;;;;;0.60;0.60;;;26.30;99.90;;;;;;6124708;23;20204;-88
2022/07/23 11:10:44;;;;;;;1.00;0.95;;;26.30;99.90;;;;;;6124414;23;20235;-89
2022/07/23 11:13:22;;;;;;;0.60;0.60;;;24.70;99.90;;;;;;6126492;23;20168;-95
2022/07/23 11:16:04;;;;;;;0.68;0.68;;;25.10;99.90;;;;;;6127478;23;20235;-90
2022/07/23 11:18:42;;;;;;;1.48;0.75;;;25.10;99.90;;;;;;6125132;23;20241;-90
2022/07/23 11:21:23;;;;;;;1.02;0.70;;;25.20;99.90;;;;;;6125147;23;20232;-90
2022/07/23 11:24:10;;;;;;;0.80;0.77;;;25.40;99.90;;;;;;6124965;23;20278;-90
2022/07/23 11:26:57;;;;;;;0.52;0.52;;;26.20;99.90;;;;;;6126349;23;20196;-89
2022/07/23 11:29:26;;;;;;;3.20;0.85;;;26.10;99.90;;;;;;6125913;23;20838;-87
2022/07/23 11:32:00;;;;;;;0.50;0.50;;;25.30;99.90;;;;;;6124831;23;20208;-85
2022/07/23 11:34:39;;;;;;;1.13;0.60;;;25.10;99.90;;;;;;6124432;23;20243;-86
2022/07/23 11:37:07;;;;;;;0.57;0.57;;;24.80;99.90;;;;;;6124763;23;20235;-85
2022/07/23 11:39:34;;;;;;;3.00;0.82;;;24.90;99.90;;;;;;6112844;23;20200;-85
2022/07/23 11:42:04;;;;;;;0.55;0.55;;;24.70;99.90;;;;;;6071287;23;20197;-85
2022/07/23 11:44:31;;;;;;;3.20;0.77;;;25.20;99.90;;;;;;6070920;23;20654;-86
2022/07/23 11:47:03;;;;;;;1.15;0.85;;;25.30;99.90;;;;;;6070911;23;20201;-86
2022/07/23 11:49:29;;;;;;;0.60;0.60;;;24.60;99.90;;;;;;6071000;23;20250;-86
2022/07/23 11:52:16;;;;;;;1.38;0.65;;;23.40;99.90;;;;;;6048234;23;20259;-85
2022/07/23 11:54:53;;;;;;;2.65;0.90;;;23.10;99.90;;;;;;6071376;23;20185;-88
2022/07/23 11:57:20;;;;;;;0.85;0.73;;;23.80;99.90;;;;;;6070997;23;20204;-87
2022/07/23 11:59:49;;;;;;;0.70;0.70;;;23.90;99.90;;;;;;6071039;23;20650;-87
2022/07/23 12:02:15;;;;;;;2.40;1.10;;;23.20;99.90;;;;;;6096758;23;20204;-86
2022/07/23 12:04:42;;;;;;;1.05;0.70;;;23.20;99.90;;;;;;6071317;23;20200;-88
2022/07/23 12:07:27;;;;;;;0.85;0.80;;;23.10;99.90;;;;;;6047730;23;20168;-88
2022/07/23 12:09:53;;;;;;;2.35;0.80;;;22.60;99.90;;;;;;6072370;23;20160;-88
2022/07/23 12:12:20;;;;;;;2.65;0.95;;;22.80;99.90;;;;;;6071308;23;20209;-87
2022/07/23 12:14:54;;;;;;;0.93;0.70;;;22.90;99.90;;;;;;6071274;23;20292;-88
2022/07/23 12:17:21;;;;;;;4.32;1.05;;;23.20;99.90;;;;;;6071421;23;20191;-88
2022/07/23 12:19:48;;;;;;;1.60;0.80;;;23.50;99.90;;;;;;6047380;23;20201;-86
2022/07/23 12:22:17;;;;;;;0.73;0.70;;;23.40;99.90;;;;;;6047276;23;20169;-86
2022/07/23 12:25:00;;;;;;;1.60;0.77;;;23.30;99.90;;;;;;6048349;23;20164;-86
2022/07/23 12:27:27;;;;;;;0.93;0.90;;;23.20;99.90;;;;;;6070921;23;20680;-86
2022/07/23 12:29:53;;;;;;;2.08;0.80;;;23.80;99.90;;;;;;6047054;23;20240;-86
2022/07/23 12:32:25;;;;;;;1.02;0.77;;;23.50;99.90;;;;;;6071015;23;20216;-86
2022/07/23 12:35:29;;;;;;;0.60;0.60;;;23.00;99.90;;;;;;6096231;23;20284;-86
2022/07/23 12:38:06;;;;;;;2.15;0.70;;;22.90;99.90;;;;;;6023961;23;20657;-85
2022/07/23 12:40:36;;;;;;;1.20;0.85;;;22.80;99.90;;;;;;6096158;23;20236;-88
2022/07/23 12:43:08;;;;;;;0.80;0.80;;;23.10;99.90;;;;;;6072011;23;20160;-88
2022/07/23 12:46:02;;;;;;;1.10;0.85;;;23.40;99.90;;;;;;6096965;23;20191;-88
2022/07/23 12:48:33;;;;;;;3.20;1.10;;;23.50;99.90;;;;;;6096066;23;20207;-85
2022/07/23 12:51:03;;;;;;;2.75;0.85;;;23.30;99.90;;;;;;6047909;23;20204;-85
2022/07/23 12:53:33;;;;;;;1.20;0.80;;;23.50;99.90;;;;;;6070763;23;20510;-86
2022/07/23 12:56:05;;;;;;;1.35;0.80;;;23.30;99.90;;;;;;6070752;23;20201;-86